createdAt,value
2023-02-14T05:45:24.061Z,-1.37
2023-02-14T05:50:25.775Z,-0.97
2023-02-14T05:55:27.413Z,-1.21
2023-02-14T06:00:29.482Z,-1.28
2023-02-14T06:05:31.114Z,-1.21
2023-02-14T06:10:32.962Z,-1.16
2023-02-14T06:15:38.224Z,-1.53
2023-02-14T06:20:39.984Z,-1.14
2023-02-14T06:25:41.704Z,-1.26
2023-02-14T06:30:43.472Z,-1.33
2023-02-14T06:35:45.234Z,-1.20
2023-02-14T06:40:46.860Z,-1.12
2023-02-14T06:45:48.571Z,-1.01
2023-02-14T06:50:50.293Z,-0.96
2023-02-14T06:55:51.998Z,-0.99
2023-02-14T07:00:58.008Z,-0.84
2023-02-14T07:06:00.053Z,-1.10
2023-02-14T07:11:02.072Z,-0.99
2023-02-14T07:16:04.191Z,-0.90
2023-02-14T07:21:05.990Z,-0.77
2023-02-14T07:26:07.657Z,-1.08
2023-02-14T07:31:09.422Z,-0.80
2023-02-14T07:36:11.539Z,-0.89
2023-02-14T07:41:13.165Z,-0.98
2023-02-14T07:46:14.948Z,-0.97
2023-02-14T07:51:16.643Z,-0.80
2023-02-14T07:56:18.364Z,-0.91
2023-02-14T08:01:21.355Z,-0.73
2023-02-14T08:06:23.058Z,-0.45
2023-02-14T08:11:43.440Z,-0.65
2023-02-14T08:16:45.110Z,-0.57
2023-02-14T08:21:46.833Z,-0.77
2023-02-14T08:26:48.451Z,-0.63
2023-02-14T08:31:50.244Z,-0.60
2023-02-14T08:36:52.148Z,-0.40
2023-02-14T08:41:53.755Z,-0.51
2023-02-14T08:46:55.595Z,-0.50
2023-02-14T08:51:57.322Z,-0.52
2023-02-14T08:56:59.009Z,-0.39
2023-02-14T09:02:00.623Z,-0.64
2023-02-14T09:07:04.617Z,-0.24
2023-02-14T09:12:08.452Z,-0.07
2023-02-14T09:17:13.888Z,-0.01
2023-02-14T09:22:15.679Z,0.00
2023-02-14T09:27:17.335Z,0.16
2023-02-14T09:32:19.470Z,0.15
2023-02-14T09:37:21.216Z,0.18
2023-02-14T09:42:40.339Z,0.11
2023-02-14T09:47:55.502Z,0.20
2023-02-14T09:53:01.680Z,0.26
2023-02-14T09:58:23.266Z,0.81
2023-02-14T10:03:47.562Z,0.76
2023-02-14T10:09:02.553Z,0.76
2023-02-14T10:14:15.891Z,0.63
2023-02-14T10:19:21.172Z,0.73
2023-02-14T10:24:37.594Z,1.00
2023-02-14T10:29:41.651Z,0.85
2023-02-14T10:34:56.703Z,0.77
2023-02-14T10:40:40.606Z,0.78
2023-02-14T10:46:06.951Z,0.70
2023-02-14T10:51:15.514Z,1.02
2023-02-14T10:56:28.171Z,1.10
2023-02-14T11:01:30.365Z,0.74
2023-02-14T11:06:32.851Z,1.08
2023-02-14T11:11:46.727Z,1.25
2023-02-14T11:16:52.008Z,0.88
2023-02-14T11:21:56.640Z,1.27
2023-02-14T11:27:02.316Z,1.02
2023-02-14T11:32:14.615Z,1.27
2023-02-14T11:37:22.433Z,1.25
2023-02-14T11:42:35.780Z,1.36
2023-02-14T11:47:41.498Z,1.30
2023-02-14T11:52:51.942Z,1.19
2023-02-14T11:57:54.736Z,1.53
2023-02-14T12:02:59.239Z,1.44
2023-02-14T12:08:04.115Z,1.56
2023-02-14T12:13:09.034Z,1.52
2023-02-14T12:18:22.720Z,1.47
2023-02-14T12:23:36.900Z,1.38
2023-02-14T12:28:50.313Z,1.29
2023-02-14T12:33:51.994Z,1.20
2023-02-14T12:39:02.562Z,1.49
2023-02-14T12:44:07.642Z,1.71
2023-02-14T12:49:28.331Z,1.78
2023-02-14T12:54:37.208Z,1.71
2023-02-14T13:00:08.017Z,1.57
2023-02-14T13:05:28.363Z,1.56
2023-02-14T13:10:48.653Z,1.54
2023-02-14T13:16:27.829Z,1.65
2023-02-14T13:21:33.680Z,1.55
2023-02-14T13:26:40.054Z,1.48
2023-02-14T13:31:42.261Z,1.50
2023-02-14T13:36:45.518Z,1.40
2023-02-14T13:41:47.185Z,1.63
2023-02-14T13:46:52.043Z,1.47
2023-02-14T13:51:56.093Z,1.36
2023-02-14T13:56:59.849Z,1.23
2023-02-14T14:02:28.298Z,1.69
2023-02-14T14:07:31.686Z,1.46
2023-02-14T14:12:37.613Z,1.31
2023-02-14T14:17:46.043Z,1.28
2023-02-14T14:22:51.946Z,1.22
2023-02-14T14:27:53.734Z,1.41
2023-02-14T14:32:55.426Z,1.46
2023-02-14T14:37:59.036Z,1.18
2023-02-14T14:43:24.427Z,1.31
2023-02-14T14:48:39.554Z,1.43
2023-02-14T14:53:46.083Z,1.15
2023-02-14T14:58:48.073Z,1.03
2023-02-14T15:03:50.058Z,1.07
2023-02-14T15:08:52.103Z,1.30
2023-02-14T15:13:54.051Z,1.28
2023-02-14T15:19:07.433Z,0.97
2023-02-14T15:24:14.755Z,0.92
2023-02-14T15:29:26.774Z,1.12
2023-02-14T15:34:32.950Z,0.97
2023-02-14T15:39:42.572Z,1.14
2023-02-14T15:44:44.859Z,1.06
2023-02-14T15:49:46.759Z,1.02
2023-02-14T15:54:48.612Z,1.16
2023-02-14T15:59:50.658Z,1.13
2023-02-14T16:04:52.391Z,1.07
2023-02-14T16:10:24.855Z,1.16
2023-02-14T16:15:29.539Z,0.94
2023-02-14T16:20:37.308Z,0.87
2023-02-14T16:25:41.302Z,1.02
2023-02-14T16:30:45.569Z,0.78
2023-02-14T16:35:48.991Z,0.72
2023-02-14T16:40:53.171Z,0.75
2023-02-14T16:45:54.894Z,0.50
2023-02-14T16:50:57.447Z,0.35
2023-02-14T16:56:01.381Z,0.74
2023-02-14T17:01:03.655Z,0.88
2023-02-14T17:06:08.208Z,0.84
2023-02-14T17:11:10.492Z,0.90
2023-02-14T17:16:15.680Z,0.38
2023-02-14T17:21:21.393Z,0.67
2023-02-14T17:26:23.824Z,0.58
2023-02-14T17:31:25.758Z,0.67
2023-02-14T17:36:27.902Z,0.47
2023-02-14T17:41:29.664Z,0.56
2023-02-14T17:46:32.125Z,0.38
2023-02-14T17:51:33.871Z,0.38
2023-02-14T17:56:35.514Z,0.41
2023-02-14T18:01:37.201Z,0.45
2023-02-14T18:06:40.346Z,0.15
2023-02-14T18:11:44.433Z,0.29
2023-02-14T18:16:46.795Z,0.22
2023-02-14T18:21:48.528Z,0.33
2023-02-14T18:26:50.320Z,0.58
2023-02-14T18:31:52.237Z,0.19
2023-02-14T18:36:54.920Z,0.24
2023-02-14T18:41:59.985Z,0.33
2023-02-14T18:47:02.882Z,0.18
2023-02-14T18:52:05.129Z,0.11
2023-02-14T18:57:06.968Z,0.11
2023-02-14T19:02:09.401Z,0.23
2023-02-14T19:07:11.326Z,0.37
2023-02-14T19:12:13.923Z,0.21
2023-02-14T19:17:17.005Z,0.37
2023-02-14T19:22:19.028Z,0.29
2023-02-14T19:27:21.621Z,0.28
2023-02-14T19:32:23.529Z,0.29
2023-02-14T19:37:26.852Z,0.44
2023-02-14T19:42:28.525Z,0.20
2023-02-14T19:47:45.932Z,0.01
2023-02-14T19:52:48.574Z,-0.04
2023-02-14T19:57:50.322Z,-0.13
2023-02-14T20:02:52.238Z,0.20
2023-02-14T20:07:56.730Z,0.23
2023-02-14T20:12:58.529Z,0.24
2023-02-14T20:18:00.495Z,0.43
2023-02-14T20:23:02.100Z,0.41
2023-02-14T20:28:03.728Z,0.15
2023-02-14T20:33:06.041Z,0.15
2023-02-14T20:38:08.201Z,0.06
2023-02-14T20:43:09.842Z,0.20
2023-02-14T20:48:11.463Z,0.44
2023-02-14T20:53:13.207Z,0.08
2023-02-14T20:58:14.824Z,-0.02
2023-02-14T21:03:16.496Z,-0.03
2023-02-14T21:08:18.494Z,0.11
2023-02-14T21:13:20.463Z,0.27
2023-02-14T21:18:22.635Z,0.07
2023-02-14T21:23:24.257Z,0.20
